Wetterdaten: Woche 20.11.17 - 26.11.17 (KW47)
Datum Zeit Temp. Aussen Temp. o. S. +5cm Feuchte Auss BlattFeu 1 Luftdruck Regen Sonnenschein Regendauer Solar Windben Empfang
20.11.2017 00:00 4,8 C 4,5 C 3,2 C 94 % 1 lf 1020,6 hPa 0,0 l/m 0,00 h 0,27 h 0 W/m 20,0 km/h (4 Bft) 96,95 %
20.11.2017 01:00 4,2 C 4,0 C 2,8 C 94 % 1 lf 1020,2 hPa 0,0 l/m 0,00 h 0,13 h 0 W/m 23,0 km/h (4 Bft) 94,99 %
20.11.2017 02:00 4,0 C 3,9 C 2,8 C 94 % 0 lf 1020,1 hPa 0,2 l/m 0,00 h 0,00 h 0 W/m 24,4 km/h (4 Bft) 96,30 %
20.11.2017 03:00 3,9 C 3,8 C 2,7 C 93 % 0 lf 1019,7 hPa 0,0 l/m 0,00 h 0,00 h 0 W/m 19,2 km/h (3 Bft) 98,15 %
20.11.2017 04:00 3,6 C 3,3 C 2,2 C 93 % 0 lf 1019,6 hPa 0,0 l/m 0,00 h 0,00 h 0 W/m 21,3 km/h (4 Bft) 95,58 %
20.11.2017 05:00 3,6 C 3,3 C 2,2 C 93 % 0 lf 1019,5 hPa 0,0 l/m 0,00 h 0,00 h 0 W/m 18,7 km/h (3 Bft) 95,00 %
20.11.2017 06:00 3,6 C 3,5 C 2,4 C 93 % 0 lf 1019,4 hPa 0,0 l/m 0,00 h 0,00 h 0 W/m 17,9 km/h (3 Bft) 97,92 %
20.11.2017 07:00 3,8 C 3,9 C 2,8 C 92 % 0 lf 1019,3 hPa 0,0 l/m 0,00 h 0,03 h 0 W/m 19,2 km/h (3 Bft) 95,26 %
20.11.2017 08:00 3,9 C 3,6 C 2,5 C 92 % 10 lf 1019,5 hPa 0,4 l/m 0,00 h 0,73 h 7 W/m 18,8 km/h (3 Bft) 97,61 %
20.11.2017 09:00 3,8 C 3,3 C 2,6 C 93 % 15 lf 1019,0 hPa 0,4 l/m 0,00 h 0,97 h 30 W/m 15,2 km/h (3 Bft) 96,57 %
20.11.2017 10:00 3,9 C 3,6 C 3,0 C 94 % 15 lf 1018,1 hPa 0,2 l/m 0,00 h 0,67 h 46 W/m 16,4 km/h (3 Bft) 94,88 %
20.11.2017 11:00 4,3 C 3,9 C 3,3 C 94 % 15 lf 1017,5 hPa 0,2 l/m 0,00 h 0,70 h 45 W/m 12,3 km/h (3 Bft) 99,03 %
20.11.2017 12:00 4,8 C 4,3 C 3,9 C 94 % 15 lf 1016,6 hPa 1,0 l/m 0,00 h 1,00 h 47 W/m 13,8 km/h (3 Bft) 95,61 %
20.11.2017 13:00 5,2 C 4,9 C 4,2 C 96 % 15 lf 1015,3 hPa 1,2 l/m 0,00 h 1,00 h 34 W/m 16,0 km/h (3 Bft) 95,13 %
20.11.2017 14:00 5,6 C 5,4 C 4,4 C 96 % 15 lf 1013,9 hPa 0,6 l/m 0,00 h 0,97 h 16 W/m 19,1 km/h (3 Bft) 97,86 %
20.11.2017 15:00 6,0 C 5,7 C 4,8 C 97 % 15 lf 1012,8 hPa 0,0 l/m 0,00 h 0,20 h 9 W/m 21,3 km/h (4 Bft) 97,22 %
20.11.2017 16:00 6,4 C 6,1 C 5,1 C 98 % 15 lf 1011,9 hPa 0,8 l/m 0,00 h 0,83 h 5 W/m 21,9 km/h (4 Bft) 94,80 %
20.11.2017 17:00 6,9 C 6,7 C 5,8 C 98 % 15 lf 1011,2 hPa 0,4 l/m 0,00 h 0,80 h 0 W/m 26,3 km/h (4 Bft) 96,68 %
20.11.2017 18:00 7,7 C 7,5 C 6,5 C 98 % 15 lf 1010,7 hPa 1,0 l/m 0,00 h 1,00 h 0 W/m 32,5 km/h (5 Bft) 95,07 %
20.11.2017 19:00 8,3 C 8,0 C 7,0 C 99 % 15 lf 1010,5 hPa 0,0 l/m 0,00 h 0,90 h 0 W/m 36,5 km/h (5 Bft) 96,72 %
20.11.2017 20:00 8,8 C 8,3 C 7,3 C 99 % 15 lf 1010,4 hPa 0,2 l/m 0,00 h 0,63 h 0 W/m 31,9 km/h (5 Bft) 95,44 %
20.11.2017 21:00 9,0 C 8,6 C 7,8 C 99 % 15 lf 1010,5 hPa 0,6 l/m 0,00 h 0,70 h 0 W/m 30,6 km/h (5 Bft) 95,59 %
20.11.2017 22:00 9,4 C 9,0 C 8,0 C 99 % 15 lf 1010,2 hPa 0,6 l/m 0,00 h 0,63 h 0 W/m 31,6 km/h (5 Bft) 96,66 %
20.11.2017 23:00 9,7 C 9,4 C 8,3 C 99 % 15 lf 1010,4 hPa 0,6 l/m 0,00 h 0,70 h 0 W/m 29,1 km/h (5 Bft) 97,58 %
21.11.2017 00:00 9,8 C 9,4 C 8,3 C 99 % 15 lf 1010,6 hPa 0,0 l/m 0,00 h 0,13 h 0 W/m 30,1 km/h (5 Bft) 93,92 %
21.11.2017 01:00 10,0 C 9,4 C 8,6 C 99 % 15 lf 1010,7 hPa 0,2 l/m 0,00 h 0,13 h 0 W/m 29,7 km/h (5 Bft) 97,72 %
21.11.2017 02:00 10,2 C 9,9 C 8,9 C 99 % 15 lf 1010,7 hPa 0,0 l/m 0,00 h 0,43 h 0 W/m 27,2 km/h (4 Bft) 97,23 %
21.11.2017 03:00 10,4 C 10,0 C 8,9 C 99 % 15 lf 1010,7 hPa 0,4 l/m 0,00 h 0,37 h 0 W/m 24,2 km/h (4 Bft) 95,30 %
21.11.2017 04:00 10,4 C 10,0 C 8,9 C 99 % 15 lf 1010,6 hPa 0,4 l/m 0,00 h 0,47 h 0 W/m 26,4 km/h (4 Bft) 96,48 %
21.11.2017 05:00 10,4 C 10,0 C 8,9 C 99 % 15 lf 1010,7 hPa 0,0 l/m 0,00 h 0,03 h 0 W/m 25,9 km/h (4 Bft) 97,31 %
21.11.2017 06:00 10,4 C 10,0 C 8,9 C 99 % 15 lf 1010,8 hPa 0,0 l/m 0,00 h 0,07 h 0 W/m 22,1 km/h (4 Bft) 96,36 %
21.11.2017 07:00 10,4 C 10,0 C 8,9 C 99 % 15 lf 1010,8 hPa 0,6 l/m 0,00 h 0,80 h 0 W/m 19,1 km/h (3 Bft) 97,07 %
21.11.2017 08:00 10,4 C 10,0 C 9,0 C 99 % 15 lf 1010,9 hPa 0,2 l/m 0,00 h 0,23 h 7 W/m 19,8 km/h (3 Bft) 95,53 %
21.11.2017 09:00 10,6 C 10,0 C 9,4 C 99 % 15 lf 1010,9 hPa 0,4 l/m 0,00 h 0,53 h 16 W/m 25,3 km/h (4 Bft) 96,74 %
21.11.2017 10:00 10,7 C 10,6 C 9,4 C 99 % 15 lf 1011,2 hPa 0,0 l/m 0,00 h 0,13 h 32 W/m 28,2 km/h (4 Bft) 98,30 %
21.11.2017 11:00 10,6 C 10,4 C 9,4 C 99 % 15 lf 1011,2 hPa 0,0 l/m 0,00 h 0,07 h 34 W/m 31,4 km/h (5 Bft) 93,94 %
21.11.2017 12:00 10,6 C 10,1 C 9,4 C 99 % 15 lf 1011,1 hPa 0,0 l/m 0,00 h 0,17 h 33 W/m 32,8 km/h (5 Bft) 97,72 %
21.11.2017 13:00 10,3 C 10,0 C 9,1 C 99 % 15 lf 1010,8 hPa 0,0 l/m 0,00 h 0,60 h 26 W/m 35,3 km/h (5 Bft) 98,12 %
21.11.2017 14:00 10,1 C 9,9 C 8,9 C 99 % 15 lf 1010,6 hPa 0,2 l/m 0,00 h 0,17 h 29 W/m 34,7 km/h (5 Bft) 95,35 %
21.11.2017 15:00 9,9 C 9,9 C 8,6 C 98 % 12 lf 1010,5 hPa 0,0 l/m 0,00 h 0,03 h 15 W/m 33,7 km/h (5 Bft) 95,84 %
21.11.2017 16:00 9,7 C 9,7 C 8,3 C 97 % 0 lf 1010,5 hPa 0,0 l/m 0,00 h 0,00 h 6 W/m 30,2 km/h (5 Bft) 98,05 %
21.11.2017 17:00 9,7 C 9,4 C 8,0 C 95 % 0 lf 1010,4 hPa 0,0 l/m 0,00 h 0,00 h 0 W/m 32,1 km/h (5 Bft) 96,48 %
21.11.2017 18:00 9,7 C 9,4 C 8,1 C 93 % 0 lf 1010,4 hPa 0,0 l/m 0,00 h 0,00 h 0 W/m 26,4 km/h (4 Bft) 98,05 %
21.11.2017 19:00 9,7 C 9,4 C 8,2 C 92 % 0 lf 1010,2 hPa 0,0 l/m 0,00 h 0,00 h 0 W/m 26,6 km/h (4 Bft) 95,30 %
21.11.2017 20:00 9,6 C 9,4 C 8,3 C 91 % 0 lf 1010,1 hPa 0,0 l/m 0,00 h 0,00 h 0 W/m 26,7 km/h (4 Bft) 95,59 %
21.11.2017 21:00 9,4 C 9,4 C 8,1 C 90 % 0 lf 1009,8 hPa 0,0 l/m 0,00 h 0,00 h 0 W/m 24,5 km/h (4 Bft) 97,51 %
21.11.2017 22:00 9,5 C 9,4 C 8,3 C 90 % 0 lf 1009,5 hPa 0,0 l/m 0,00 h 0,00 h 0 W/m 25,1 km/h (4 Bft) 95,87 %
21.11.2017 23:00 9,6 C 9,4 C 8,3 C 89 % 0 lf 1009,0 hPa 0,0 l/m 0,00 h 0,00 h 0 W/m 26,8 km/h (4 Bft) 93,88 %
22.11.2017 00:00 9,7 C 9,5 C 8,3 C 89 % 0 lf 1008,6 hPa 0,0 l/m 0,00 h 0,00 h 0 W/m 26,0 km/h (4 Bft) 95,21 %
22.11.2017 01:00 9,9 C 10,0 C 8,4 C 88 % 0 lf 1008,4 hPa 0,0 l/m 0,00 h 0,00 h 0 W/m 24,5 km/h (4 Bft) 95,09 %
22.11.2017 02:00 10,1 C 10,0 C 8,9 C 88 % 0 lf 1008,2 hPa 0,0 l/m 0,00 h 0,00 h 0 W/m 27,0 km/h (4 Bft) 95,30 %
22.11.2017 03:00 10,3 C 10,1 C 8,7 C 87 % 0 lf 1007,5 hPa 0,0 l/m 0,00 h 0,00 h 0 W/m 30,0 km/h (5 Bft) 97,09 %
22.11.2017 04:00 10,3 C 10,2 C 8,9 C 86 % 0 lf 1007,2 hPa 0,0 l/m 0,00 h 0,00 h 0 W/m 27,7 km/h (4 Bft) 95,66 %
22.11.2017 05:00 10,5 C 10,4 C 8,9 C 85 % 0 lf 1007,0 hPa 0,0 l/m 0,00 h 0,00 h 0 W/m 32,9 km/h (5 Bft) 95,59 %
22.11.2017 06:00 10,6 C 10,5 C 8,9 C 85 % 0 lf 1006,7 hPa 0,0 l/m 0,00 h 0,00 h 0 W/m 31,0 km/h (5 Bft) 96,69 %
22.11.2017 07:00 10,4 C 10,1 C 8,9 C 85 % 0 lf 1006,6 hPa 0,0 l/m 0,00 h 0,00 h 0 W/m 30,6 km/h (5 Bft) 94,02 %
22.11.2017 08:00 10,5 C 10,5 C 9,1 C 85 % 0 lf 1007,2 hPa 0,0 l/m 0,00 h 0,00 h 13 W/m 26,3 km/h (4 Bft) 98,79 %
22.11.2017 09:00 10,7 C 10,9 C 9,6 C 85 % 0 lf 1007,4 hPa 0,0 l/m 0,00 h 0,00 h 43 W/m 29,1 km/h (5 Bft) 96,65 %
22.11.2017 10:00 10,8 C 11,5 C 9,9 C 84 % 0 lf 1007,7 hPa 0,0 l/m 0,17 h 0,00 h 93 W/m 28,0 km/h (4 Bft) 93,89 %
22.11.2017 11:00 11,2 C 14,3 C 10,4 C 83 % 0 lf 1007,6 hPa 0,0 l/m 0,90 h 0,00 h 203 W/m 21,4 km/h (4 Bft) 97,51 %
22.11.2017 12:00 12,4 C 17,2 C 11,2 C 78 % 0 lf 1007,0 hPa 0,0 l/m 1,00 h 0,00 h 270 W/m 21,0 km/h (4 Bft) 96,27 %
22.11.2017 13:00 13,8 C 19,0 C 11,9 C 74 % 0 lf 1006,4 hPa 0,0 l/m 1,00 h 0,00 h 239 W/m 19,1 km/h (3 Bft) 97,50 %
22.11.2017 14:00 14,2 C 16,9 C 12,2 C 73 % 0 lf 1005,9 hPa 0,0 l/m 1,00 h 0,00 h 153 W/m 17,0 km/h (3 Bft) 95,45 %
22.11.2017 15:00 13,8 C 13,8 C 10,9 C 75 % 0 lf 1005,1 hPa 0,0 l/m 0,23 h 0,00 h 54 W/m 15,8 km/h (3 Bft) 95,25 %
22.11.2017 16:00 12,8 C 12,1 C 9,6 C 78 % 0 lf 1004,8 hPa 0,0 l/m 0,00 h 0,00 h 13 W/m 16,8 km/h (3 Bft) 97,79 %
22.11.2017 17:00 11,6 C 11,0 C 9,0 C 79 % 0 lf 1004,2 hPa 0,0 l/m 0,00 h 0,00 h 0 W/m 26,9 km/h (4 Bft) 97,58 %
22.11.2017 18:00 10,4 C 9,8 C 7,8 C 81 % 0 lf 1003,8 hPa 0,0 l/m 0,00 h 0,00 h 0 W/m 22,9 km/h (4 Bft) 93,52 %
22.11.2017 19:00 9,6 C 9,1 C 7,2 C 82 % 0 lf 1003,5 hPa 0,0 l/m 0,00 h 0,00 h 0 W/m 22,6 km/h (4 Bft) 98,91 %
22.11.2017 20:00 8,8 C 8,2 C 6,3 C 83 % 0 lf 1003,0 hPa 0,0 l/m 0,00 h 0,00 h 0 W/m 19,3 km/h (3 Bft) 95,56 %
22.11.2017 21:00 7,8 C 7,2 C 5,6 C 86 % 0 lf 1002,6 hPa 0,0 l/m 0,00 h 0,00 h 0 W/m 18,0 km/h (3 Bft) 97,30 %
22.11.2017 22:00 7,7 C 7,4 C 5,6 C 87 % 0 lf 1002,3 hPa 0,0 l/m 0,00 h 0,00 h 0 W/m 19,8 km/h (4 Bft) 95,45 %
22.11.2017 23:00 7,5 C 7,2 C 5,4 C 87 % 0 lf 1001,8 hPa 0,0 l/m 0,00 h 0,00 h 0 W/m 17,5 km/h (3 Bft) 96,09 %
23.11.2017 00:00 7,2 C 7,0 C 5,0 C 86 % 0 lf 1001,6 hPa 0,0 l/m 0,00 h 0,00 h 0 W/m 16,9 km/h (3 Bft) 97,61 %
23.11.2017 01:00 7,2 C 7,1 C 5,0 C 86 % 0 lf 1001,2 hPa 0,0 l/m 0,00 h 0,00 h 0 W/m 15,7 km/h (3 Bft) 97,58 %
23.11.2017 02:00 7,5 C 7,7 C 5,7 C 83 % 0 lf 1000,5 hPa 0,0 l/m 0,00 h 0,00 h 0 W/m 18,6 km/h (3 Bft) 93,60 %
23.11.2017 03:00 8,6 C 8,7 C 6,5 C 79 % 0 lf 999,8 hPa 0,0 l/m 0,00 h 0,00 h 0 W/m 16,5 km/h (3 Bft) 98,36 %
23.11.2017 04:00 9,6 C 9,8 C 7,6 C 77 % 0 lf 999,5 hPa 0,0 l/m 0,00 h 0,00 h 0 W/m 21,5 km/h (4 Bft) 96,51 %
23.11.2017 05:00 10,7 C 10,7 C 8,5 C 74 % 0 lf 999,1 hPa 0,0 l/m 0,00 h 0,00 h 0 W/m 22,2 km/h (4 Bft) 96,43 %
23.11.2017 06:00 11,2 C 11,2 C 9,0 C 73 % 0 lf 998,8 hPa 0,0 l/m 0,00 h 0,00 h 0 W/m 29,8 km/h (5 Bft) 95,89 %
23.11.2017 07:00 11,7 C 11,7 C 9,8 C 73 % 0 lf 998,5 hPa 0,0 l/m 0,00 h 0,00 h 0 W/m 32,5 km/h (5 Bft) 97,18 %
23.11.2017 08:00 11,9 C 11,7 C 9,7 C 74 % 0 lf 998,6 hPa 0,0 l/m 0,00 h 0,00 h 12 W/m 30,0 km/h (5 Bft) 96,24 %
23.11.2017 09:00 12,7 C 13,1 C 11,2 C 74 % 0 lf 999,0 hPa 0,0 l/m 0,13 h 0,00 h 46 W/m 32,5 km/h (5 Bft) 97,12 %
23.11.2017 10:00 14,2 C 14,8 C 13,1 C 71 % 0 lf 999,6 hPa 0,0 l/m 0,00 h 0,00 h 89 W/m 37,1 km/h (5 Bft) 95,14 %
23.11.2017 11:00 15,2 C 15,5 C 13,9 C 71 % 0 lf 1000,5 hPa 0,0 l/m 0,07 h 0,07 h 108 W/m 43,5 km/h (6 Bft) 97,51 %
23.11.2017 12:00 15,1 C 15,7 C 14,0 C 74 % 0 lf 1001,1 hPa 0,0 l/m 0,33 h 0,00 h 134 W/m 42,4 km/h (6 Bft) 96,81 %
23.11.2017 13:00 15,0 C 15,7 C 14,0 C 76 % 0 lf 1001,7 hPa 0,0 l/m 0,37 h 0,00 h 129 W/m 40,7 km/h (6 Bft) 94,23 %
23.11.2017 14:00 15,3 C 16,2 C 13,6 C 75 % 0 lf 1002,0 hPa 0,0 l/m 0,40 h 0,00 h 96 W/m 37,9 km/h (5 Bft) 97,29 %
23.11.2017 15:00 15,1 C 15,1 C 13,4 C 78 % 0 lf 1002,5 hPa 0,0 l/m 0,03 h 0,00 h 34 W/m 36,0 km/h (5 Bft) 99,15 %
23.11.2017 16:00 14,3 C 12,9 C 11,5 C 84 % 10 lf 1003,8 hPa 1,4 l/m 0,00 h 0,30 h 7 W/m 28,9 km/h (5 Bft) 92,19 %
23.11.2017 17:00 12,2 C 11,1 C 9,9 C 92 % 15 lf 1005,3 hPa 0,0 l/m 0,00 h 0,00 h 0 W/m 18,9 km/h (3 Bft) 99,07 %
23.11.2017 18:00 11,7 C 10,9 C 9,5 C 93 % 13 lf 1006,6 hPa 0,0 l/m 0,00 h 0,03 h 0 W/m 17,2 km/h (3 Bft) 97,94 %
23.11.2017 19:00 11,5 C 10,9 C 9,1 C 91 % 0 lf 1007,0 hPa 0,0 l/m 0,00 h 0,00 h 0 W/m 19,2 km/h (3 Bft) 95,08 %
23.11.2017 20:00 11,0 C 10,6 C 8,7 C 87 % 0 lf 1007,8 hPa 0,0 l/m 0,00 h 0,00 h 0 W/m 24,9 km/h (4 Bft) 95,94 %
23.11.2017 21:00 10,8 C 10,6 C 8,7 C 85 % 0 lf 1008,4 hPa 0,0 l/m 0,00 h 0,00 h 0 W/m 15,9 km/h (3 Bft) 97,58 %
23.11.2017 22:00 10,8 C 10,6 C 8,9 C 87 % 0 lf 1008,7 hPa 0,0 l/m 0,00 h 0,00 h 0 W/m 14,6 km/h (3 Bft) 95,60 %
23.11.2017 23:00 10,6 C 10,3 C 8,9 C 86 % 0 lf 1008,6 hPa 0,0 l/m 0,00 h 0,00 h 0 W/m 14,6 km/h (3 Bft) 98,15 %
24.11.2017 00:00 10,4 C 10,6 C 8,9 C 85 % 0 lf 1008,4 hPa 0,0 l/m 0,00 h 0,00 h 0 W/m 15,1 km/h (3 Bft) 94,41 %
24.11.2017 01:00 10,7 C 10,6 C 9,0 C 82 % 0 lf 1007,9 hPa 0,0 l/m 0,00 h 0,00 h 0 W/m 15,5 km/h (3 Bft) 95,58 %
24.11.2017 02:00 10,4 C 10,0 C 8,7 C 85 % 0 lf 1007,0 hPa 0,0 l/m 0,00 h 0,00 h 0 W/m 13,2 km/h (3 Bft) 98,72 %
24.11.2017 03:00 10,2 C 8,8 C 7,9 C 89 % 12 lf 1006,5 hPa 1,8 l/m 0,00 h 0,83 h 0 W/m 9,0 km/h (2 Bft) 95,37 %
24.11.2017 04:00 9,6 C 8,3 C 7,5 C 92 % 15 lf 1005,6 hPa 1,0 l/m 0,00 h 0,77 h 0 W/m 6,5 km/h (2 Bft) 93,24 %
24.11.2017 05:00 9,2 C 8,3 C 7,2 C 94 % 15 lf 1004,7 hPa 2,2 l/m 0,00 h 0,67 h 0 W/m 5,5 km/h (1 Bft) 97,78 %
24.11.2017 06:00 8,8 C 8,0 C 7,2 C 95 % 15 lf 1005,2 hPa 3,8 l/m 0,00 h 1,00 h 0 W/m 12,8 km/h (3 Bft) 96,75 %
24.11.2017 07:00 8,1 C 7,3 C 6,7 C 96 % 15 lf 1005,1 hPa 1,2 l/m 0,00 h 0,80 h 0 W/m 7,5 km/h (2 Bft) 95,52 %
24.11.2017 08:00 7,8 C 7,2 C 6,7 C 96 % 15 lf 1006,5 hPa 1,2 l/m 0,00 h 0,77 h 6 W/m 6,5 km/h (2 Bft) 96,30 %
24.11.2017 09:00 7,7 C 7,4 C 6,8 C 96 % 15 lf 1007,3 hPa 0,0 l/m 0,00 h 0,27 h 27 W/m 5,6 km/h (1 Bft) 96,10 %
24.11.2017 10:00 8,1 C 8,7 C 7,9 C 97 % 15 lf 1008,2 hPa 0,0 l/m 0,37 h 0,07 h 110 W/m 10,6 km/h (2 Bft) 98,14 %
24.11.2017 11:00 8,4 C 8,9 C 7,9 C 97 % 14 lf 1008,9 hPa 0,0 l/m 0,00 h 0,20 h 102 W/m 9,9 km/h (2 Bft) 95,94 %
24.11.2017 12:00 8,2 C 7,9 C 7,1 C 96 % 4 lf 1009,7 hPa 0,0 l/m 0,00 h 0,07 h 42 W/m 14,0 km/h (3 Bft) 95,99 %
24.11.2017 13:00 8,1 C 8,1 C 7,3 C 95 % 0 lf 1010,0 hPa 0,0 l/m 0,00 h 0,00 h 69 W/m 8,9 km/h (2 Bft) 98,01 %
24.11.2017 14:00 8,5 C 10,6 C 7,3 C 94 % 0 lf 1010,1 hPa 0,0 l/m 0,43 h 0,00 h 122 W/m 12,2 km/h (2 Bft) 97,43 %
24.11.2017 15:00 8,5 C 8,3 C 6,6 C 91 % 0 lf 1010,6 hPa 0,0 l/m 0,13 h 0,00 h 35 W/m 9,2 km/h (2 Bft) 93,67 %
24.11.2017 16:00 8,1 C 7,1 C 5,5 C 91 % 0 lf 1010,8 hPa 0,0 l/m 0,17 h 0,00 h 14 W/m 4,6 km/h (1 Bft) 99,36 %
24.11.2017 17:00 7,5 C 6,9 C 5,6 C 92 % 0 lf 1010,9 hPa 0,0 l/m 0,00 h 0,00 h 0 W/m 3,8 km/h (1 Bft) 95,95 %
24.11.2017 18:00 7,3 C 6,3 C 5,0 C 93 % 1 lf 1011,0 hPa 0,0 l/m 0,00 h 0,00 h 0 W/m 0,0 km/h (0 Bft) 96,41 %
24.11.2017 19:00 6,8 C 6,3 C 5,1 C 94 % 2 lf 1011,2 hPa 0,0 l/m 0,00 h 0,00 h 0 W/m 2,9 km/h (1 Bft) 96,44 %
24.11.2017 20:00 6,9 C 6,7 C 5,6 C 95 % 1 lf 1011,2 hPa 0,0 l/m 0,00 h 0,00 h 0 W/m 3,4 km/h (1 Bft) 96,73 %
24.11.2017 21:00 7,0 C 6,7 C 5,6 C 96 % 0 lf 1011,0 hPa 0,0 l/m 0,00 h 0,00 h 0 W/m 0,7 km/h (0 Bft) 97,13 %
24.11.2017 22:00 6,8 C 6,6 C 5,6 C 96 % 5 lf 1010,6 hPa 0,0 l/m 0,00 h 0,23 h 0 W/m 2,0 km/h (1 Bft) 96,30 %
24.11.2017 23:00 6,8 C 6,7 C 5,6 C 96 % 13 lf 1010,3 hPa 0,0 l/m 0,00 h 0,17 h 0 W/m 2,0 km/h (1 Bft) 96,01 %
25.11.2017 00:00 6,8 C 6,2 C 5,6 C 97 % 15 lf 1010,0 hPa 0,0 l/m 0,00 h 0,37 h 0 W/m 6,7 km/h (2 Bft) 96,44 %
25.11.2017 01:00 6,1 C 5,4 C 4,7 C 96 % 15 lf 1009,7 hPa 3,0 l/m 0,00 h 1,00 h 0 W/m 17,6 km/h (3 Bft) 97,72 %
25.11.2017 02:00 5,3 C 5,0 C 3,9 C 97 % 15 lf 1009,6 hPa 1,2 l/m 0,00 h 1,00 h 0 W/m 15,8 km/h (3 Bft) 96,30 %
25.11.2017 03:00 5,0 C 4,6 C 3,6 C 97 % 15 lf 1008,9 hPa 0,0 l/m 0,00 h 0,77 h 0 W/m 16,1 km/h (3 Bft) 94,87 %
25.11.2017 04:00 4,7 C 4,4 C 3,4 C 97 % 15 lf 1008,5 hPa 0,0 l/m 0,00 h 0,13 h 0 W/m 8,6 km/h (2 Bft) 97,36 %
25.11.2017 05:00 4,7 C 4,4 C 3,5 C 97 % 15 lf 1008,3 hPa 0,0 l/m 0,00 h 0,00 h 0 W/m 5,0 km/h (1 Bft) 98,21 %
25.11.2017 06:00 4,5 C 4,1 C 3,3 C 97 % 15 lf 1008,3 hPa 0,0 l/m 0,00 h 0,23 h 0 W/m 6,4 km/h (2 Bft) 94,69 %
25.11.2017 07:00 4,3 C 3,9 C 3,3 C 97 % 15 lf 1008,6 hPa 0,0 l/m 0,00 h 0,00 h 0 W/m 7,4 km/h (2 Bft) 96,30 %
25.11.2017 08:00 4,2 C 3,9 C 3,0 C 97 % 15 lf 1009,3 hPa 0,0 l/m 0,00 h 0,00 h 13 W/m 8,7 km/h (2 Bft) 97,58 %
25.11.2017 09:00 4,1 C 4,1 C 3,3 C 97 % 15 lf 1010,2 hPa 0,0 l/m 0,00 h 0,00 h 35 W/m 5,9 km/h (2 Bft) 95,73 %
25.11.2017 10:00 4,2 C 4,5 C 3,5 C 97 % 6 lf 1010,7 hPa 0,0 l/m 0,00 h 0,00 h 59 W/m 11,1 km/h (2 Bft) 98,37 %
25.11.2017 11:00 4,8 C 9,5 C 4,3 C 96 % 0 lf 1010,8 hPa 0,0 l/m 0,82 h 0,00 h 204 W/m 10,8 km/h (2 Bft) 94,67 %
25.11.2017 12:00 5,8 C 10,0 C 4,5 C 93 % 0 lf 1011,0 hPa 0,0 l/m 0,67 h 0,00 h 181 W/m 15,9 km/h (3 Bft) 95,78 %
25.11.2017 13:00 6,8 C 9,3 C 5,7 C 88 % 0 lf 1011,3 hPa 0,0 l/m 0,30 h 0,00 h 158 W/m 17,2 km/h (3 Bft) 97,65 %
25.11.2017 14:00 6,5 C 6,9 C 5,0 C 87 % 0 lf 1011,8 hPa 0,0 l/m 0,00 h 0,00 h 95 W/m 16,1 km/h (3 Bft) 95,51 %
25.11.2017 15:00 6,1 C 6,2 C 4,3 C 88 % 0 lf 1012,3 hPa 0,0 l/m 0,33 h 0,00 h 58 W/m 14,9 km/h (3 Bft) 97,44 %
25.11.2017 16:00 5,6 C 5,1 C 3,9 C 88 % 0 lf 1012,9 hPa 0,0 l/m 0,23 h 0,00 h 17 W/m 19,7 km/h (3 Bft) 97,15 %
25.11.2017 17:00 4,7 C 3,9 C 2,8 C 86 % 0 lf 1013,5 hPa 0,0 l/m 0,00 h 0,00 h 0 W/m 11,9 km/h (2 Bft) 94,80 %
25.11.2017 18:00 3,9 C 3,2 C 2,1 C 88 % 0 lf 1014,2 hPa 0,0 l/m 0,00 h 0,00 h 0 W/m 15,0 km/h (3 Bft) 96,95 %
25.11.2017 19:00 3,2 C 2,4 C 1,3 C 89 % 0 lf 1014,8 hPa 0,0 l/m 0,00 h 0,00 h 0 W/m 16,3 km/h (3 Bft) 98,93 %
25.11.2017 20:00 2,7 C 2,2 C 1,1 C 92 % 0 lf 1015,4 hPa 0,0 l/m 0,00 h 0,00 h 0 W/m 17,7 km/h (3 Bft) 94,59 %
25.11.2017 21:00 2,8 C 2,7 C 1,6 C 93 % 1 lf 1016,2 hPa 0,2 l/m 0,00 h 0,10 h 0 W/m 20,6 km/h (4 Bft) 96,87 %
25.11.2017 22:00 2,9 C 2,2 C 1,3 C 93 % 15 lf 1016,5 hPa 0,0 l/m 0,00 h 0,20 h 0 W/m 18,7 km/h (3 Bft) 97,15 %
25.11.2017 23:00 2,7 C 2,2 C 1,1 C 94 % 15 lf 1016,8 hPa 0,0 l/m 0,00 h 0,00 h 0 W/m 23,1 km/h (4 Bft) 94,87 %
26.11.2017 00:00 2,6 C 2,2 C 1,1 C 95 % 8 lf 1017,0 hPa 0,0 l/m 0,00 h 0,03 h 0 W/m 22,1 km/h (4 Bft) 98,88 %
26.11.2017 01:00 2,5 C 2,2 C 0,8 C 95 % 0 lf 1017,2 hPa 0,0 l/m 0,00 h 0,13 h 0 W/m 24,6 km/h (4 Bft) 94,31 %
26.11.2017 02:00 2,6 C 2,1 C 0,9 C 95 % 13 lf 1017,4 hPa 0,2 l/m 0,00 h 0,23 h 0 W/m 18,5 km/h (3 Bft) 96,37 %
26.11.2017 03:00 2,3 C 2,0 C 0,7 C 94 % 14 lf 1017,6 hPa 0,0 l/m 0,00 h 0,50 h 0 W/m 25,1 km/h (4 Bft) 97,65 %
26.11.2017 04:00 2,6 C 2,2 C 0,7 C 94 % 1 lf 1017,8 hPa 0,0 l/m 0,00 h 0,83 h 0 W/m 26,0 km/h (4 Bft) 97,57 %
26.11.2017 05:00 2,4 C 2,2 C 0,7 C 93 % 0 lf 1017,8 hPa 0,0 l/m 0,00 h 0,30 h 0 W/m 25,2 km/h (4 Bft) 95,46 %
26.11.2017 06:00 2,4 C 2,2 C 0,7 C 92 % 0 lf 1017,9 hPa 0,0 l/m 0,00 h 0,00 h 0 W/m 24,2 km/h (4 Bft) 95,42 %
26.11.2017 07:00 2,6 C 2,6 C 1,1 C 92 % 0 lf 1018,1 hPa 0,0 l/m 0,00 h 0,00 h 0 W/m 22,7 km/h (4 Bft) 98,12 %
26.11.2017 08:00 2,8 C 2,8 C 1,6 C 92 % 0 lf 1018,6 hPa 0,0 l/m 0,00 h 0,00 h 12 W/m 25,1 km/h (4 Bft) 96,22 %
26.11.2017 09:00 3,1 C 3,2 C 2,0 C 92 % 0 lf 1019,1 hPa 0,0 l/m 0,00 h 0,00 h 30 W/m 26,7 km/h (4 Bft) 96,53 %
26.11.2017 10:00 3,4 C 3,8 C 2,8 C 92 % 0 lf 1019,5 hPa 0,0 l/m 0,00 h 0,00 h 56 W/m 28,7 km/h (4 Bft) 96,08 %
26.11.2017 11:00 4,0 C 4,5 C 3,7 C 91 % 0 lf 1019,6 hPa 0,0 l/m 0,00 h 0,00 h 87 W/m 32,6 km/h (5 Bft) 95,59 %
26.11.2017 12:00 4,5 C 5,8 C 4,2 C 90 % 0 lf 1019,9 hPa 0,0 l/m 0,50 h 0,00 h 146 W/m 35,8 km/h (5 Bft) 97,83 %
26.11.2017 13:00 5,3 C 6,9 C 4,7 C 87 % 0 lf 1019,9 hPa 0,0 l/m 0,43 h 0,00 h 145 W/m 32,8 km/h (5 Bft) 96,02 %
26.11.2017 14:00 5,5 C 6,1 C 4,9 C 86 % 0 lf 1020,3 hPa 0,0 l/m 0,07 h 0,00 h 86 W/m 31,0 km/h (5 Bft) 96,03 %
26.11.2017 15:00 5,4 C 5,5 C 4,2 C 87 % 0 lf 1020,6 hPa 0,0 l/m 0,00 h 0,00 h 30 W/m 24,0 km/h (4 Bft) 97,32 %
26.11.2017 16:00 4,9 C 4,5 C 3,1 C 87 % 0 lf 1020,8 hPa 0,0 l/m 0,00 h 0,00 h 12 W/m 22,8 km/h (4 Bft) 96,30 %
26.11.2017 17:00 4,4 C 3,9 C 2,8 C 88 % 0 lf 1021,3 hPa 0,0 l/m 0,00 h 0,00 h 0 W/m 23,6 km/h (4 Bft) 94,17 %
26.11.2017 18:00 4,2 C 3,9 C 2,6 C 89 % 0 lf 1021,7 hPa 0,0 l/m 0,00 h 0,00 h 0 W/m 23,8 km/h (4 Bft) 98,22 %
26.11.2017 19:00 4,0 C 3,4 C 2,2 C 90 % 0 lf 1022,0 hPa 0,0 l/m 0,00 h 0,00 h 0 W/m 21,8 km/h (4 Bft) 96,15 %
26.11.2017 20:00 3,9 C 3,5 C 2,2 C 91 % 0 lf 1022,2 hPa 0,0 l/m 0,00 h 0,00 h 0 W/m 23,6 km/h (4 Bft) 96,86 %
26.11.2017 21:00 4,1 C 3,8 C 2,4 C 91 % 4 lf 1022,2 hPa 0,0 l/m 0,00 h 0,07 h 0 W/m 26,4 km/h (4 Bft) 96,72 %
26.11.2017 22:00 3,9 C 3,7 C 2,2 C 91 % 0 lf 1022,1 hPa 0,0 l/m 0,00 h 0,10 h 0 W/m 26,3 km/h (4 Bft) 94,23 %
26.11.2017 23:00 4,0 C 3,8 C 2,5 C 90 % 5 lf 1022,2 hPa 0,2 l/m 0,00 h 0,33 h 0 W/m 28,7 km/h (4 Bft) 98,50 %
Min-Datum _ 26.11.17 26.11.17 26.11.17 23.11.17 20.11.17 23.11.17 - - - - 24.11.17 24.11.17
_ Min-Zeit 03:02 02:32 00:38 10:10 01:56 07:34 - - - - 04:52 04:05
Minimum _ 2,3 C 1,7 C 0,6 C 71 % 0 lf 998,4 hPa - - - - 0,0 km/h (0 Bft) 13,04 %
Max-Datum _ 23.11.17 22.11.17 23.11.17 20.11.17 20.11.17 26.11.17 24.11.17 25.11.17 24.11.17 25.11.17 23.11.17 20.11.17
_ Max-Zeit 14:28 13:04 11:32 18:46 08:20 23:54 06:10 11:52 04:05 13:08 13:00 00:22
Maximum _ 15,4 C 20,6 C 14,4 C 99 % 15 lf 1022,5 hPa 3,8 l/m 0,08 h 0,08 h 375 W/m 74,3 km/h
SW (8 Bft)
100,00 %
Durchschnitt _ 7,8 C 7,8 C 6,3 C 90 % 5 lf 1010,7 hPa #28,2 l/m #10:05 h #29:54 h 65 W/m 21,0 km/h (4 Bft) 96,42 %
© 2017 W. Hausmann